Time;durP1;ratioP1;P1;durP2;ratioP2;P2;SDS_P1;SDS_P2;PMS_P1;PMS_P2;Temp;Humidity;BMP_temperature;BMP_pressure;BME280_temperature;BME280_humidity;BME280_pressure;Samples;Min_cycle;Max_cycle;Signal;HPM_P1;HPM_P2
2022/02/06 00:01:35;;;;;;;7.78;4.25;;;;;;;0.96;83.76;97942.27;1821973;78;20968;-70
2022/02/06 00:04:02;;;;;;;8.93;4.45;;;;;;;0.94;83.85;97946.17;1822122;78;20948;-68
2022/02/06 00:06:32;;;;;;;11.65;5.05;;;;;;;0.96;83.93;97937.00;1822407;78;20921;-62
2022/02/06 00:08:58;;;;;;;9.15;4.47;;;;;;;0.95;83.97;97940.66;1822220;78;20909;-66
2022/02/06 00:11:25;;;;;;;9.53;4.85;;;;;;;0.94;83.95;97941.70;1822106;78;21041;-62
2022/02/06 00:13:52;;;;;;;10.43;4.80;;;;;;;0.94;83.98;97944.34;1822262;78;21554;-64
2022/02/06 00:16:18;;;;;;;9.38;4.83;;;;;;;0.96;83.89;97948.87;1822125;78;20877;-70
2022/02/06 00:18:46;;;;;;;12.98;5.35;;;;;;;0.96;83.91;97953.33;1822198;78;20865;-69
2022/02/06 00:21:17;;;;;;;8.10;4.42;;;;;;;0.97;83.84;97946.50;1822239;78;20925;-66
2022/02/06 00:23:44;;;;;;;10.28;4.40;;;;;;;1.00;83.81;97944.73;1822058;78;21132;-68
2022/02/06 00:26:25;;;;;;;7.83;4.70;;;;;;;1.00;83.82;97938.64;1822245;78;21369;-69
2022/02/06 00:28:54;;;;;;;7.40;5.00;;;;;;;1.00;83.82;97947.37;1820093;78;20881;-69
2022/02/06 00:34:14;;;;;;;7.92;4.95;;;;;;;0.97;83.93;97949.64;1822240;78;20881;-64
2022/02/06 00:39:06;;;;;;;8.98;4.72;;;;;;;0.99;83.94;97943.66;1822128;78;20870;-69
2022/02/06 00:41:36;;;;;;;7.90;4.70;;;;;;;0.98;84.00;97940.20;1822246;78;20913;-69
2022/02/06 00:44:04;;;;;;;9.33;4.83;;;;;;;0.97;84.01;97931.19;1822434;78;20881;-68
2022/02/06 00:46:37;;;;;;;8.63;4.85;;;;;;;0.98;84.07;97938.08;1822198;78;20932;-65
2022/02/06 00:49:21;;;;;;;10.60;4.83;;;;;;;0.95;84.03;97935.37;1822364;78;21077;-61
2022/02/06 00:51:53;;;;;;;7.97;4.08;;;;;;;0.94;84.03;97923.25;1821243;78;20897;-69
2022/02/06 00:54:11;;;;;;;7.50;4.40;;;;;;;0.95;83.95;97930.11;1819942;78;20933;-66
2022/02/06 00:56:40;;;;;;;8.55;4.90;;;;;;;0.93;83.92;97929.54;1822373;78;21412;-64
2022/02/06 00:59:06;;;;;;;8.03;4.70;;;;;;;0.95;83.74;97924.02;1822302;78;20924;-67
2022/02/06 01:01:34;;;;;;;7.58;4.65;;;;;;;0.96;83.64;97931.72;1819381;78;21746;-61
2022/02/06 01:04:00;;;;;;;10.50;4.90;;;;;;;0.97;83.42;97932.50;1813501;79;20858;-65
2022/02/06 01:06:27;;;;;;;9.18;4.72;;;;;;;0.96;83.06;97931.72;1813675;78;21386;-68
2022/02/06 01:08:54;;;;;;;10.05;4.78;;;;;;;0.94;83.09;97935.11;1813508;78;20910;-65
2022/02/06 01:11:21;;;;;;;8.93;4.30;;;;;;;0.91;83.12;97934.24;1814485;79;21012;-65
2022/02/06 01:14:05;;;;;;;7.65;4.58;;;;;;;0.90;83.24;97935.27;1813460;79;20886;-65
2022/02/06 01:16:29;;;;;;;8.45;4.67;;;;;;;0.90;83.27;97933.95;1810589;78;20913;-65
2022/02/06 01:19:16;;;;;;;8.03;4.37;;;;;;;0.91;83.31;97917.61;1813263;78;21476;-62
2022/02/06 01:21:45;;;;;;;7.62;4.83;;;;;;;0.89;83.39;97924.45;1812230;79;21484;-68
2022/02/06 01:24:19;;;;;;;10.45;5.58;;;;;;;0.87;83.48;97925.20;1812541;78;20949;-65
2022/02/06 01:29:33;;;;;;;11.65;5.12;;;;;;;0.89;83.70;97931.55;1813437;79;20862;-67
2022/02/06 01:31:53;;;;;;;9.30;5.25;;;;;;;0.89;83.73;97924.45;1808739;79;21402;-67
2022/02/06 01:34:16;;;;;;;8.30;4.75;;;;;;;0.89;83.81;97927.08;1813059;78;20909;-63
2022/02/06 01:36:46;;;;;;;8.13;5.05;;;;;;;0.90;83.92;97929.18;1813433;78;20953;-65
2022/02/06 01:41:58;;;;;;;7.62;5.00;;;;;;;0.91;84.13;97930.29;1813492;79;20918;-67
2022/02/06 01:44:37;;;;;;;9.88;5.53;;;;;;;0.91;84.09;97925.02;1813395;78;20925;-65
2022/02/06 02:00:45;;;;;;;9.58;5.70;;;;;;;0.77;84.99;97902.55;1813626;79;21033;-63
2022/02/06 02:09:08;;;;;;;8.63;5.67;;;;;;;0.76;85.14;97902.25;1813468;78;20842;-62
2022/02/06 02:27:41;;;;;;;11.28;6.72;;;;;;;0.74;85.50;97912.23;1813540;79;20859;-65
2022/02/06 02:48:12;;;;;;;13.95;8.68;;;;;;;0.76;85.85;97902.25;1813774;79;20834;-64
2022/02/06 02:50:43;;;;;;;17.57;8.18;;;;;;;0.80;85.84;97907.88;1813382;79;20835;-68
2022/02/06 02:53:18;;;;;;;12.95;7.90;;;;;;;0.80;85.86;97900.75;1813218;78;21381;-65
2022/02/06 03:03:31;;;;;;;15.18;9.25;;;;;;;0.81;85.87;97886.55;1813536;78;20881;-69
2022/02/06 03:05:58;;;;;;;14.87;7.87;;;;;;;0.82;85.92;97879.45;1813445;78;20914;-65
2022/02/06 03:08:26;;;;;;;15.93;8.25;;;;;;;0.80;85.86;97876.23;1813583;78;20938;-62
2022/02/06 03:10:56;;;;;;;15.90;8.98;;;;;;;0.78;85.95;97876.45;1813627;78;21106;-69
2022/02/06 03:13:24;;;;;;;14.23;8.65;;;;;;;0.79;85.94;97870.67;1813497;79;20949;-63
2022/02/06 03:18:28;;;;;;;13.18;8.25;;;;;;;0.79;85.86;97874.63;1813653;78;20957;-66
2022/02/06 03:20:53;;;;;;;12.43;7.65;;;;;;;0.78;85.84;97868.54;1813404;78;21402;-67
2022/02/06 03:23:19;;;;;;;12.73;7.25;;;;;;;0.77;85.80;97861.68;1813830;79;21119;-67
2022/02/06 03:25:50;;;;;;;19.10;8.63;;;;;;;0.75;85.80;97865.06;1813705;79;21350;-61
2022/02/06 03:28:15;;;;;;;15.70;8.28;;;;;;;0.74;85.81;97858.69;1813291;78;20891;-67
2022/02/06 03:30:42;;;;;;;12.88;7.72;;;;;;;0.72;85.89;97851.02;1813611;79;21487;-68
2022/02/06 03:33:10;;;;;;;11.30;7.25;;;;;;;0.73;85.80;97851.83;1813800;78;21341;-61
2022/02/06 03:35:36;;;;;;;19.07;8.60;;;;;;;0.69;85.85;97857.55;1813646;79;21122;-67
2022/02/06 03:38:04;;;;;;;15.43;8.20;;;;;;;0.69;85.81;97847.52;1813576;79;20968;-64
2022/02/06 03:40:42;;;;;;;18.32;8.48;;;;;;;0.70;85.77;97858.36;1813625;79;21008;-69
2022/02/06 03:43:06;;;;;;;12.88;7.28;;;;;;;0.69;85.74;97848.84;1812105;78;20913;-68
2022/02/06 03:45:38;;;;;;;13.40;7.35;;;;;;;0.69;85.73;97850.16;1813498;78;21377;-67
2022/02/06 03:48:10;;;;;;;17.12;8.33;;;;;;;0.71;85.76;97846.77;1812604;78;21101;-62
2022/02/06 03:50:33;;;;;;;13.88;7.72;;;;;;;0.73;85.67;97843.37;1811893;78;20838;-68
2022/02/06 03:52:55;;;;;;;15.93;8.25;;;;;;;0.77;85.59;97839.78;1813578;78;20964;-60
2022/02/06 03:55:22;;;;;;;12.58;7.97;;;;;;;0.77;85.41;97837.95;1813989;79;21498;-67
2022/02/06 03:57:51;;;;;;;14.13;7.42;;;;;;;0.77;85.34;97827.41;1813648;79;20862;-62
2022/02/06 04:00:20;;;;;;;14.35;7.80;;;;;;;0.76;85.30;97820.52;1813519;78;21420;-68
2022/02/06 04:02:47;;;;;;;13.75;7.72;;;;;;;0.79;85.17;97814.79;1817718;78;21416;-69
2022/02/06 04:05:14;;;;;;;12.37;7.47;;;;;;;0.79;85.11;97820.06;1822228;78;20960;-61
2022/02/06 04:07:42;;;;;;;14.65;8.23;;;;;;;0.79;85.07;97821.38;1822196;78;20861;-65
2022/02/06 04:10:12;;;;;;;17.27;7.97;;;;;;;0.83;84.97;97818.55;1822222;78;20846;-61
2022/02/06 04:12:42;;;;;;;18.73;7.70;;;;;;;0.82;84.73;97814.34;1822118;78;21114;-64
2022/02/06 04:15:35;;;;;;;13.30;7.67;;;;;;;0.78;84.69;97815.81;1822277;78;21369;-65
2022/02/06 04:18:10;;;;;;;12.37;7.50;;;;;;;0.73;84.73;97823.61;1820574;78;20917;-64
2022/02/06 04:20:25;;;;;;;15.93;8.15;;;;;;;0.71;84.73;97817.77;1819792;78;21428;-68
2022/02/06 04:22:52;;;;;;;14.95;8.00;;;;;;;0.70;84.69;97810.91;1822234;78;20944;-64
2022/02/06 04:25:18;;;;;;;13.15;7.60;;;;;;;0.67;84.65;97802.95;1822213;78;21123;-65
2022/02/06 04:27:45;;;;;;;13.28;7.62;;;;;;;0.65;84.58;97818.70;1822057;78;20960;-71
2022/02/06 04:30:11;;;;;;;14.47;7.42;;;;;;;0.64;84.51;97813.14;1822076;78;20981;-67
2022/02/06 04:32:38;;;;;;;13.40;7.15;;;;;;;0.62;84.39;97809.94;1822194;78;20842;-61
2022/02/06 04:35:08;;;;;;;11.10;6.60;;;;;;;0.63;84.46;97806.28;1822239;78;21007;-65
2022/02/06 04:37:43;;;;;;;13.88;6.90;;;;;;;0.67;84.31;97814.00;1822139;78;21125;-67
2022/02/06 04:40:12;;;;;;;14.35;7.33;;;;;;;0.70;84.11;97808.27;1820662;78;20992;-67
2022/02/06 04:51:09;;;;;;;14.50;7.00;;;;;;;0.74;83.42;97806.77;1822523;78;21102;-63
2022/02/06 04:53:09;;;;;;;11.63;6.20;;;;;;;0.74;83.30;97812.04;1818086;78;20904;-64
2022/02/06 05:20:30;;;;;;;10.90;5.00;;;;;;;0.90;81.37;97779.67;1813974;78;21535;-70
2022/02/06 05:25:30;;;;;;;10.75;4.72;;;;;;;0.89;81.00;97768.86;1814139;78;20917;-66
2022/02/06 05:31:32;;;;;;;9.13;5.03;;;;;;;0.89;80.46;97760.95;1814017;79;21163;-63
2022/02/06 05:33:00;;;;;;;11.30;4.75;;;;;;;0.89;80.48;97747.77;1788835;79;20863;-64
2022/02/06 05:35:27;;;;;;;9.78;5.00;;;;;;;0.89;79.87;97753.04;1814128;79;20901;-66
2022/02/06 05:37:54;;;;;;;10.53;4.70;;;;;;;0.89;79.71;97754.36;1814203;79;21412;-68
2022/02/06 05:40:21;;;;;;;8.95;4.25;;;;;;;0.90;79.91;97753.30;1814145;79;20909;-68
2022/02/06 05:42:48;;;;;;;7.40;4.62;;;;;;;0.92;79.52;97755.19;1814009;79;21246;-66
2022/02/06 05:45:18;;;;;;;7.90;4.28;;;;;;;0.94;79.44;97759.73;1814052;78;21028;-62
2022/02/06 05:47:43;;;;;;;9.05;4.17;;;;;;;0.97;79.14;97758.44;1813887;78;20905;-70
2022/02/06 05:50:10;;;;;;;8.50;4.10;;;;;;;0.98;78.96;97754.27;1813954;79;20881;-68
2022/02/06 05:52:36;;;;;;;10.58;4.08;;;;;;;1.00;78.24;97761.42;1814252;78;21415;-70
2022/02/06 05:55:04;;;;;;;7.37;3.87;;;;;;;1.01;78.18;97763.03;1761267;79;21131;-67
2022/02/06 05:57:31;;;;;;;8.68;4.00;;;;;;;1.00;78.14;97755.34;1786922;79;20962;-63
2022/02/06 05:59:57;;;;;;;7.55;4.00;;;;;;;1.00;78.04;97742.95;1814042;79;20975;-62
2022/02/06 06:02:24;;;;;;;8.08;3.92;;;;;;;1.02;77.66;97756.70;1810680;78;20964;-62
2022/02/06 06:04:51;;;;;;;7.03;3.30;;;;;;;1.06;77.54;97759.70;1778603;80;20910;-66
2022/02/06 06:07:17;;;;;;;7.80;3.70;;;;;;;1.06;77.40;97756.52;1778558;80;21113;-65
2022/02/06 06:09:44;;;;;;;8.23;3.70;;;;;;;1.07;77.12;97762.09;1778393;80;20978;-66
2022/02/06 06:12:12;;;;;;;5.90;3.52;;;;;;;1.09;76.88;97757.38;1778365;80;21013;-63
2022/02/06 06:14:40;;;;;;;7.12;3.47;;;;;;;1.11;76.55;97751.34;1778442;80;20880;-65
2022/02/06 06:17:07;;;;;;;5.90;3.22;;;;;;;1.11;76.32;97740.78;1778490;80;20915;-68
2022/02/06 06:19:35;;;;;;;8.48;3.70;;;;;;;1.14;76.45;97742.95;1778362;80;21179;-68
2022/02/06 06:22:07;;;;;;;8.33;3.42;;;;;;;1.16;75.87;97748.80;1778427;80;20931;-66
2022/02/06 06:24:39;;;;;;;5.67;2.83;;;;;;;1.18;75.36;97749.87;1778355;80;21477;-65
2022/02/06 06:27:02;;;;;;;7.33;3.05;;;;;;;1.18;74.89;97740.64;1777516;80;20902;-68
2022/02/06 06:29:29;;;;;;;9.08;3.33;;;;;;;1.21;74.71;97742.81;1778736;80;20914;-69
2022/02/06 06:31:57;;;;;;;6.37;3.05;;;;;;;1.22;74.43;97742.59;1778601;80;21105;-68
2022/02/06 06:34:26;;;;;;;5.47;2.58;;;;;;;1.25;73.90;97738.14;1778621;80;21431;-60
2022/02/06 06:36:53;;;;;;;6.08;3.02;;;;;;;1.27;73.72;97745.84;1779522;80;21552;-65
2022/02/06 06:39:34;;;;;;;7.78;2.87;;;;;;;1.29;73.06;97742.44;1778782;80;20930;-62
2022/02/06 06:41:51;;;;;;;5.70;2.85;;;;;;;1.31;72.19;97742.48;1776759;80;20839;-68
2022/02/06 06:44:17;;;;;;;7.03;3.30;;;;;;;1.33;72.59;97731.17;1778617;80;21060;-63
2022/02/06 06:46:44;;;;;;;6.58;2.67;;;;;;;1.36;71.67;97734.66;1778808;80;20914;-68
2022/02/06 06:49:11;;;;;;;5.80;2.70;;;;;;;1.41;72.02;97719.44;1778609;80;21430;-66
2022/02/06 06:51:37;;;;;;;5.90;2.98;;;;;;;1.46;71.40;97721.36;1778570;80;20919;-63
2022/02/06 06:54:11;;;;;;;8.88;2.60;;;;;;;1.47;71.28;97721.11;1778719;80;20883;-65
2022/02/06 06:56:43;;;;;;;4.83;2.70;;;;;;;1.48;70.55;97717.95;1777941;80;21830;-62
2022/02/06 06:59:13;;;;;;;4.28;2.50;;;;;;;1.47;70.71;97715.02;1777054;80;21025;-68
2022/02/06 07:01:44;;;;;;;4.78;2.20;;;;;;;1.49;70.61;97718.22;1776878;80;20871;-62
2022/02/06 07:04:01;;;;;;;6.37;2.40;;;;;;;1.54;70.07;97726.23;1798326;78;21378;-61
2022/02/06 07:06:28;;;;;;;4.92;2.15;;;;;;;1.61;70.06;97709.20;1813568;79;20878;-62
2022/02/06 07:08:55;;;;;;;6.08;2.40;;;;;;;1.70;69.71;97719.64;1813655;78;21110;-68
2022/02/06 07:11:23;;;;;;;4.50;2.17;;;;;;;1.79;68.86;97711.59;1813559;79;21614;-63
2022/02/06 07:13:51;;;;;;;5.40;2.25;;;;;;;1.85;67.68;97716.44;1813572;79;20912;-64
2022/02/06 07:16:18;;;;;;;5.35;2.50;;;;;;;1.95;67.12;97712.64;1813539;79;20870;-69
2022/02/06 07:18:46;;;;;;;3.80;2.17;;;;;;;2.05;67.14;97710.93;1813771;79;20937;-67
2022/02/06 07:21:12;;;;;;;4.50;2.02;;;;;;;2.17;66.62;97712.16;1813619;79;21727;-61
2022/02/06 07:23:43;;;;;;;3.40;2.10;;;;;;;2.26;66.18;97707.27;1813576;79;21365;-64
2022/02/06 07:26:17;;;;;;;5.80;2.37;;;;;;;2.34;65.17;97703.67;1813713;79;20843;-67
2022/02/06 07:28:46;;;;;;;3.27;2.00;;;;;;;2.41;63.70;97700.33;1812874;78;20922;-60
2022/02/06 07:31:07;;;;;;;4.25;1.82;;;;;;;2.49;63.30;97697.27;1812537;78;21046;-61
2022/02/06 07:33:33;;;;;;;3.72;2.00;;;;;;;2.52;62.94;97696.77;1813630;79;21172;-62
2022/02/06 07:36:00;;;;;;;3.80;2.12;;;;;;;2.57;63.27;97692.05;1813569;79;21374;-65
2022/02/06 07:38:26;;;;;;;5.62;2.47;;;;;;;2.67;62.98;97693.51;1813638;79;20909;-67
2022/02/06 07:40:53;;;;;;;3.77;2.02;;;;;;;2.75;62.60;97683.31;1813562;79;20996;-67
2022/02/06 07:43:20;;;;;;;4.40;1.85;;;;;;;2.80;62.53;97700.28;1813759;79;21249;-62
2022/02/06 07:45:47;;;;;;;4.95;2.72;;;;;;;2.80;61.75;97683.09;1813623;79;21079;-64
2022/02/06 07:48:15;;;;;;;5.90;2.65;;;;;;;2.78;60.85;97695.21;1813507;79;20874;-67
2022/02/06 07:50:43;;;;;;;4.85;2.30;;;;;;;2.76;61.65;97682.25;1813498;79;20874;-66
2022/02/06 07:53:10;;;;;;;3.85;2.20;;;;;;;2.85;61.81;97677.30;1813602;79;20917;-67
2022/02/06 07:55:36;;;;;;;5.15;2.40;;;;;;;2.93;61.14;97678.72;1813856;78;20909;-58
2022/02/06 07:58:03;;;;;;;4.05;2.25;;;;;;;2.98;60.90;97673.48;1814072;78;21674;-65
2022/02/06 08:00:31;;;;;;;5.97;2.75;;;;;;;3.03;60.97;97677.51;1813453;78;20910;-69
2022/02/06 08:02:58;;;;;;;10.32;5.92;;;;;;;3.06;60.75;97678.34;1814309;78;21417;-67
2022/02/06 08:05:25;;;;;;;5.45;2.87;;;;;;;3.14;60.68;97680.52;1822232;78;20961;-69
2022/02/06 08:07:53;;;;;;;5.33;2.67;;;;;;;3.24;59.46;97674.81;1822122;78;21037;-66
2022/02/06 08:10:21;;;;;;;4.97;2.98;;;;;;;3.29;58.47;97689.94;1822204;78;21110;-63
2022/02/06 08:12:55;;;;;;;4.47;2.50;;;;;;;3.30;58.52;97674.31;1822078;78;20842;-63
2022/02/06 08:15:20;;;;;;;5.65;2.75;;;;;;;3.29;58.29;97675.38;1821823;78;20920;-62
2022/02/06 08:17:47;;;;;;;5.65;2.77;;;;;;;3.23;58.05;97677.17;1822094;78;20917;-66
2022/02/06 08:20:16;;;;;;;5.97;3.42;;;;;;;3.14;58.10;97660.16;1822309;78;20956;-68
2022/02/06 08:22:42;;;;;;;7.35;3.22;;;;;;;3.07;58.76;97670.66;1822198;78;21109;-68
2022/02/06 08:25:11;;;;;;;20.85;13.60;;;;;;;3.00;58.48;97669.55;1822131;78;21404;-68
2022/02/06 08:27:38;;;;;;;33.30;18.55;;;;;;;2.93;59.30;97666.30;1822088;78;20953;-65
2022/02/06 08:30:06;;;;;;;14.53;7.47;;;;;;;2.87;60.18;97664.66;1822431;78;20906;-61
2022/02/06 08:32:34;;;;;;;8.78;4.53;;;;;;;2.78;60.78;97669.31;1822124;78;20976;-63
2022/02/06 08:35:01;;;;;;;32.40;10.48;;;;;;;2.64;61.39;97668.35;1822303;78;21719;-65
2022/02/06 08:37:28;;;;;;;24.37;9.30;;;;;;;2.54;62.00;97667.45;1822232;78;20830;-66
2022/02/06 08:39:55;;;;;;;38.80;12.07;;;;;;;2.50;62.15;97668.45;1822192;78;20906;-63
2022/02/06 08:42:21;;;;;;;35.55;11.83;;;;;;;2.50;62.40;97671.61;1822183;78;20920;-68
2022/02/06 08:44:48;;;;;;;89.30;22.55;;;;;;;2.47;62.58;97670.26;1822329;78;20881;-68
2022/02/06 08:47:17;;;;;;;22.98;8.53;;;;;;;2.44;62.88;97666.00;1822201;78;21065;-65
2022/02/06 08:49:44;;;;;;;30.15;9.83;;;;;;;2.44;62.97;97666.00;1822287;78;21427;-63
2022/02/06 08:52:11;;;;;;;59.08;15.83;;;;;;;2.41;63.27;97656.72;1822176;78;20850;-62
2022/02/06 08:54:39;;;;;;;127.92;36.23;;;;;;;2.43;63.58;97650.66;1822068;78;20879;-65
2022/02/06 08:57:15;;;;;;;45.38;15.20;;;;;;;2.45;63.81;97664.97;1822104;78;20889;-62
2022/02/06 08:59:36;;;;;;;42.70;15.18;;;;;;;2.48;63.76;97666.58;1821346;78;21667;-63
2022/02/06 09:02:03;;;;;;;40.35;13.62;;;;;;;2.52;63.74;97654.45;1822100;78;20957;-62
2022/02/06 09:04:30;;;;;;;59.58;19.00;;;;;;;2.50;63.77;97659.20;1817235;78;20878;-62
2022/02/06 09:07:01;;;;;;;36.90;13.55;;;;;;;2.50;63.82;97649.95;1813553;79;20878;-67
2022/02/06 09:09:27;;;;;;;14.45;6.78;;;;;;;2.48;63.66;97652.05;1813822;78;21044;-68
2022/02/06 09:11:54;;;;;;;43.25;16.25;;;;;;;2.48;63.71;97649.91;1813726;79;21211;-62
2022/02/06 09:14:24;;;;;;;34.43;14.05;;;;;;;2.47;64.14;97651.75;1813503;78;20862;-65
2022/02/06 09:16:51;;;;;;;10.48;4.65;;;;;;;2.50;64.29;97651.27;1814657;79;20870;-60
2022/02/06 09:19:19;;;;;;;8.00;4.33;;;;;;;2.46;63.56;97655.45;1813957;79;21389;-61
2022/02/06 09:21:46;;;;;;;9.55;4.50;;;;;;;2.35;64.04;97657.71;1814083;79;20976;-69
2022/02/06 09:24:15;;;;;;;6.58;3.50;;;;;;;2.24;64.69;97653.32;1791811;79;50255;-63
2022/02/06 09:26:42;;;;;;;9.00;3.67;;;;;;;2.08;66.10;97652.84;1813462;79;21425;-61
2022/02/06 09:29:08;;;;;;;8.68;5.72;;;;;;;1.93;66.44;97648.15;1813440;78;20830;-61
2022/02/06 09:31:37;;;;;;;6.65;3.95;;;;;;;1.87;67.42;97645.69;1813705;79;21420;-69
2022/02/06 09:36:32;;;;;;;5.92;3.22;;;;;;;1.82;69.46;97641.65;1813542;78;21069;-65
2022/02/06 09:38:59;;;;;;;5.17;2.98;;;;;;;1.84;70.48;97646.97;1813356;79;20862;-63
2022/02/06 09:41:26;;;;;;;5.78;3.55;;;;;;;1.82;71.70;97636.37;1813427;79;20980;-62
2022/02/06 09:43:54;;;;;;;5.00;3.27;;;;;;;1.80;72.19;97634.50;1813718;79;21471;-65
2022/02/06 09:46:21;;;;;;;6.60;3.17;;;;;;;1.81;72.73;97629.50;1813571;78;20985;-65
2022/02/06 09:48:50;;;;;;;5.05;3.52;;;;;;;1.82;73.22;97625.80;1813546;79;21115;-67
2022/02/06 09:51:17;;;;;;;6.47;3.37;;;;;;;1.83;74.07;97626.09;1813462;79;21376;-65
2022/02/06 09:53:44;;;;;;;6.53;3.67;;;;;;;1.85;74.22;97616.08;1813516;79;20953;-67
2022/02/06 09:56:12;;;;;;;5.92;2.70;;;;;;;1.89;74.34;97614.55;1813522;79;20874;-65
2022/02/06 10:01:16;;;;;;;6.53;3.92;;;;;;;1.90;73.80;97606.40;1813499;79;21117;-68
2022/02/06 10:03:46;;;;;;;11.20;6.45;;;;;;;1.98;73.70;97596.71;1809660;78;20985;-68
2022/02/06 10:06:25;;;;;;;10.25;6.47;;;;;;;2.06;73.51;97597.63;1778137;80;21481;-63
2022/02/06 10:08:59;;;;;;;8.93;6.30;;;;;;;2.16;73.23;97591.67;1778818;80;20891;-62
2022/02/06 10:11:29;;;;;;;14.50;7.58;;;;;;;2.26;72.98;97587.03;1778647;80;20923;-68
2022/02/06 10:13:55;;;;;;;5.33;3.42;;;;;;;2.36;72.40;97576.03;1778627;80;21109;-62
2022/02/06 10:16:22;;;;;;;8.20;5.28;;;;;;;2.44;71.94;97580.89;1778678;80;21343;-65
2022/02/06 10:18:49;;;;;;;6.20;3.92;;;;;;;2.50;72.01;97569.31;1725782;80;20879;-63
2022/02/06 10:21:21;;;;;;;6.78;4.45;;;;;;;2.59;71.66;97569.69;1778702;80;20978;-66
2022/02/06 10:23:57;;;;;;;12.63;8.05;;;;;;;2.61;70.82;97551.20;1777828;80;20883;-66
2022/02/06 10:26:28;;;;;;;6.37;4.10;;;;;;;2.59;70.91;97550.62;1777763;80;21073;-62
2022/02/06 10:29:21;;;;;;;11.97;6.28;;;;;;;2.70;70.46;97540.44;1778598;80;20974;-67
2022/02/06 10:31:31;;;;;;;13.75;6.72;;;;;;;2.81;70.41;97539.99;1775084;80;20871;-69
2022/02/06 10:33:58;;;;;;;6.97;5.22;;;;;;;2.93;69.64;97523.95;1778578;80;20899;-65
2022/02/06 10:36:39;;;;;;;17.57;9.48;;;;;;;2.96;69.16;97523.45;1778637;80;21473;-65
2022/02/06 10:39:01;;;;;;;12.65;7.05;;;;;;;3.00;69.20;97521.38;1777515;80;21951;-63
2022/02/06 10:41:28;;;;;;;13.58;7.20;;;;;;;3.05;68.67;97512.67;1778712;80;20871;-68
2022/02/06 10:44:04;;;;;;;8.23;5.28;;;;;;;3.13;68.32;97509.57;1778807;80;20998;-68
2022/02/06 10:46:43;;;;;;;14.70;7.85;;;;;;;3.14;66.76;97504.53;1778877;80;21414;-63
2022/02/06 10:49:12;;;;;;;10.32;7.15;;;;;;;3.12;67.00;97505.31;1778736;80;20903;-62
2022/02/06 10:51:48;;;;;;;11.05;6.05;;;;;;;3.14;66.83;97501.89;1779042;80;21075;-67
2022/02/06 10:54:30;;;;;;;10.55;6.80;;;;;;;3.17;66.53;97498.74;1778535;80;20967;-62
2022/02/06 10:57:13;;;;;;;12.63;7.50;;;;;;;3.20;65.80;97496.92;1778860;80;20938;-68
2022/02/06 10:59:50;;;;;;;8.73;5.78;;;;;;;3.17;65.95;97490.80;1778510;80;20851;-68
2022/02/06 11:02:57;;;;;;;8.35;4.87;;;;;;;3.15;65.58;97491.59;1778541;80;20887;-67
2022/02/06 11:05:20;;;;;;;8.58;5.35;;;;;;;3.10;64.81;97484.41;1776464;78;21128;-63
2022/02/06 11:07:57;;;;;;;11.03;6.60;;;;;;;3.02;65.06;97478.26;1778711;80;20955;-63
2022/02/06 11:10:28;;;;;;;9.83;6.53;;;;;;;3.01;65.12;97474.55;1778547;80;20946;-70
2022/02/06 11:12:57;;;;;;;8.43;5.30;;;;;;;3.02;65.29;97473.48;1778644;80;20962;-64
2022/02/06 11:15:31;;;;;;;8.93;5.65;;;;;;;3.05;64.97;97468.50;1778626;80;20969;-68
2022/02/06 11:18:09;;;;;;;9.78;5.92;;;;;;;3.09;64.82;97471.42;1778984;80;21650;-66
2022/02/06 11:20:58;;;;;;;9.90;6.37;;;;;;;3.14;64.57;97458.22;1776661;80;20962;-68
2022/02/06 11:23:43;;;;;;;8.58;4.72;;;;;;;3.17;64.68;97452.42;1778589;80;20966;-66
2022/02/06 11:26:17;;;;;;;10.10;6.15;;;;;;;3.19;63.83;97447.67;1778577;80;20922;-65
2022/02/06 11:28:45;;;;;;;13.30;7.75;;;;;;;3.19;63.70;97443.70;1778866;80;20969;-70
2022/02/06 11:31:14;;;;;;;9.15;6.00;;;;;;;3.19;63.95;97443.19;1778437;80;21053;-67
2022/02/06 11:33:40;;;;;;;7.87;4.87;;;;;;;3.21;63.78;97437.10;1778707;80;21335;-66
2022/02/06 11:36:14;;;;;;;8.80;5.03;;;;;;;3.23;62.83;97439.48;1778458;80;20970;-63
2022/02/06 11:45:28;;;;;;;6.50;4.00;;;;;;;3.18;62.47;97423.60;1778529;80;21041;-62
2022/02/06 11:48:04;;;;;;;5.95;3.75;;;;;;;3.21;62.28;97415.13;1778376;80;20911;-63
2022/02/06 11:50:32;;;;;;;8.53;4.42;;;;;;;3.25;62.08;97407.73;1778775;80;20887;-65
2022/02/06 11:53:04;;;;;;;8.18;4.22;;;;;;;3.31;62.29;97401.43;1778615;80;21359;-67
2022/02/06 11:55:41;;;;;;;6.22;3.75;;;;;;;3.39;62.13;97404.89;1778439;80;20939;-67
2022/02/06 11:58:32;;;;;;;8.45;3.47;;;;;;;3.44;61.67;97418.16;1778514;80;20839;-68
2022/02/06 12:01:14;;;;;;;8.18;3.60;;;;;;;3.48;61.08;97395.95;1778617;80;21399;-70
2022/02/06 12:04:05;;;;;;;7.50;4.45;;;;;;;3.49;61.11;97392.23;1780133;80;21327;-66
2022/02/06 12:06:54;;;;;;;9.85;6.15;;;;;;;3.51;61.42;97392.76;1778611;80;21378;-65
2022/02/06 12:09:29;;;;;;;11.63;6.22;;;;;;;3.55;61.41;97388.56;1778749;80;20906;-61
2022/02/06 12:12:12;;;;;;;10.78;6.35;;;;;;;3.56;61.64;97379.54;1778505;80;21119;-66
2022/02/06 12:14:53;;;;;;;7.47;4.60;;;;;;;3.55;61.64;97378.48;1778366;80;20844;-66
2022/02/06 12:20:13;;;;;;;9.75;4.50;;;;;;;3.48;61.43;97374.77;1778469;80;20927;-67
2022/02/06 12:22:49;;;;;;;7.08;4.37;;;;;;;3.45;61.47;97373.42;1778366;80;20836;-68
2022/02/06 12:25:25;;;;;;;8.65;5.62;;;;;;;3.45;61.78;97377.92;1778416;80;21110;-62
2022/02/06 12:28:25;;;;;;;8.25;5.67;;;;;;;3.40;61.58;97370.76;1778338;80;20898;-62
2022/02/06 12:31:25;;;;;;;6.92;4.25;;;;;;;3.39;61.98;97365.73;1751339;80;20922;-65
2022/02/06 12:33:56;;;;;;;6.42;3.98;;;;;;;3.35;61.92;97356.70;1777339;80;20943;-65
2022/02/06 12:39:30;;;;;;;5.22;3.40;;;;;;;3.30;62.01;97356.67;1778521;80;21115;-65
2022/02/06 12:41:57;;;;;;;5.78;3.65;;;;;;;3.22;62.33;97350.56;1778621;80;20922;-67
2022/02/06 12:44:26;;;;;;;7.00;3.50;;;;;;;3.19;62.58;97349.75;1778419;80;20930;-62
2022/02/06 12:46:55;;;;;;;7.87;3.65;;;;;;;3.17;62.81;97341.28;1778578;80;20914;-68
2022/02/06 12:49:30;;;;;;;5.65;3.42;;;;;;;3.15;62.90;97330.16;1778707;80;21374;-63
2022/02/06 12:51:58;;;;;;;6.33;3.80;;;;;;;3.16;62.89;97337.03;1778774;80;21077;-65
2022/02/06 12:54:24;;;;;;;6.90;3.67;;;;;;;3.17;62.92;97330.70;1778421;80;20918;-62
2022/02/06 12:56:55;;;;;;;6.50;4.05;;;;;;;3.19;63.13;97332.55;1778618;80;21319;-62
2022/02/06 12:59:22;;;;;;;8.08;4.03;;;;;;;3.23;63.33;97328.32;1778410;80;20911;-70
2022/02/06 13:01:49;;;;;;;6.15;3.87;;;;;;;3.24;63.36;97325.95;1778413;80;20867;-67
2022/02/06 13:04:18;;;;;;;8.75;5.00;;;;;;;3.21;62.64;97334.41;1778493;80;21113;-63
2022/02/06 13:06:47;;;;;;;7.83;4.55;;;;;;;3.15;63.02;97320.38;1778329;80;21003;-62
2022/02/06 13:09:30;;;;;;;7.55;4.35;;;;;;;3.11;63.21;97313.98;1778479;80;21552;-65
2022/02/06 13:12:11;;;;;;;8.25;3.90;;;;;;;3.11;63.16;97302.63;1778656;80;21006;-67
2022/02/06 13:20:25;;;;;;;5.97;3.90;;;;;;;3.16;63.36;97306.59;1778495;80;20069;-61
2022/02/06 13:23:03;;;;;;;5.45;3.47;;;;;;;3.18;62.87;97288.63;1775782;80;21466;-68
2022/02/06 13:31:20;;;;;;;5.62;3.42;;;;;;;3.28;62.77;97286.00;1778377;80;21178;-69
2022/02/06 13:34:02;;;;;;;6.42;3.58;;;;;;;3.32;62.98;97279.92;1774503;80;20887;-61
2022/02/06 13:36:40;;;;;;;7.10;3.80;;;;;;;3.32;62.47;97281.24;1777342;80;20876;-69
2022/02/06 13:39:09;;;;;;;4.35;3.45;;;;;;;3.32;62.46;97281.24;1777788;80;21005;-64
2022/02/06 13:41:33;;;;;;;4.95;3.15;;;;;;;3.29;62.31;97268.55;1777957;80;21628;-70
2022/02/06 13:44:06;;;;;;;6.53;4.03;;;;;;;3.29;62.31;97265.11;1750472;80;21111;-70
2022/02/06 13:46:36;;;;;;;7.17;4.42;;;;;;;3.29;62.49;97259.81;1777586;80;20997;-65
2022/02/06 13:49:04;;;;;;;6.67;3.85;;;;;;;3.27;62.54;97257.95;1778350;80;20875;-69
2022/02/06 13:51:38;;;;;;;6.78;4.15;;;;;;;3.25;62.43;97261.39;1778493;80;20911;-62
2022/02/06 13:54:04;;;;;;;9.25;6.30;;;;;;;3.23;62.20;97257.67;1778243;80;21363;-69
2022/02/06 13:56:34;;;;;;;8.85;5.55;;;;;;;3.20;62.76;97252.89;1778100;80;21461;-62
2022/02/06 13:59:07;;;;;;;14.05;8.10;;;;;;;3.20;63.08;97247.59;1778113;80;20988;-69
2022/02/06 14:01:53;;;;;;;15.83;9.25;;;;;;;3.19;63.00;97248.67;1778569;80;20962;-64
2022/02/06 14:04:33;;;;;;;15.45;7.53;;;;;;;3.16;63.18;97250.50;1778459;80;20853;-66
2022/02/06 14:07:15;;;;;;;27.27;12.30;;;;;;;3.13;62.98;97244.40;1778470;79;20864;-61
2022/02/06 14:12:16;;;;;;;14.55;6.47;;;;;;;3.10;62.78;97240.17;1778429;80;20863;-65
2022/02/06 14:14:58;;;;;;;17.00;9.18;;;;;;;3.10;62.89;97229.59;1778461;80;20994;-63
2022/02/06 14:17:29;;;;;;;13.93;8.30;;;;;;;3.10;62.98;97223.77;1778410;80;21018;-62